createdAt,value
2017-10-15T00:01:53.399Z,3.57
2017-10-15T00:05:18.508Z,3.23
2017-10-15T00:08:43.600Z,3.87
2017-10-15T00:12:09.830Z,3.40
2017-10-15T00:15:35.006Z,3.90
2017-10-15T00:19:00.884Z,3.37
2017-10-15T00:22:27.434Z,3.90
2017-10-15T00:25:52.535Z,3.80
2017-10-15T00:29:21.130Z,3.70
2017-10-15T00:32:59.116Z,3.63
2017-10-15T00:36:24.304Z,3.70
2017-10-15T00:39:49.464Z,3.10
2017-10-15T00:43:16.344Z,4.10
2017-10-15T00:46:41.515Z,3.27
2017-10-15T00:50:07.394Z,2.53
2017-10-15T00:53:34.245Z,2.63
2017-10-15T00:57:01.343Z,3.27
2017-10-15T01:00:26.925Z,3.53
2017-10-15T01:03:56.942Z,3.60
2017-10-15T01:07:23.077Z,3.00
2017-10-15T01:10:48.387Z,3.57
2017-10-15T01:14:30.205Z,3.50
2017-10-15T01:17:56.490Z,3.37
2017-10-15T01:21:21.909Z,3.10
2017-10-15T01:24:47.660Z,2.57
2017-10-15T01:28:12.944Z,3.47
2017-10-15T01:31:38.328Z,3.20
2017-10-15T01:35:03.588Z,3.00
2017-10-15T01:38:28.852Z,3.50
2017-10-15T01:41:59.152Z,3.00
2017-10-15T01:45:25.271Z,2.70
2017-10-15T01:48:50.475Z,3.20
2017-10-15T01:52:18.031Z,2.67
2017-10-15T01:55:43.539Z,2.60
2017-10-15T01:59:08.811Z,2.93
2017-10-15T02:02:47.592Z,3.37
2017-10-15T02:06:12.853Z,3.20
2017-10-15T02:09:38.040Z,2.77
2017-10-15T02:17:22.459Z,2.27
2017-10-15T02:20:48.741Z,2.87
2017-10-15T02:24:14.690Z,2.83
2017-10-15T02:27:51.140Z,2.03
2017-10-15T02:31:16.636Z,3.20
2017-10-15T02:34:41.824Z,2.63
2017-10-15T02:38:11.640Z,3.00
2017-10-15T02:41:38.032Z,2.87
2017-10-15T02:45:03.177Z,2.43
2017-10-15T02:48:28.718Z,2.73
2017-10-15T02:51:54.656Z,2.20
2017-10-15T02:55:20.235Z,3.20
2017-10-15T02:58:53.477Z,2.30
2017-10-15T03:02:20.259Z,2.60
2017-10-15T03:05:56.596Z,2.50
2017-10-15T03:09:21.911Z,2.40
2017-10-15T03:12:47.102Z,3.00
2017-10-15T03:20:11.859Z,2.43
2017-10-15T03:23:38.031Z,2.70
2017-10-15T03:27:04.206Z,2.00
2017-10-15T03:30:30.981Z,2.73
2017-10-15T03:33:56.179Z,2.23
2017-10-15T03:37:22.268Z,2.20
2017-10-15T03:44:36.377Z,2.60
2017-10-15T03:48:01.545Z,2.40
2017-10-15T03:51:37.717Z,2.33
2017-10-15T03:55:03.649Z,2.77
2017-10-15T03:58:28.882Z,2.63
2017-10-15T04:02:06.571Z,2.13
2017-10-15T04:05:31.759Z,2.17
2017-10-15T04:08:57.381Z,2.20
2017-10-15T04:16:14.908Z,1.87
2017-10-15T04:19:40.222Z,2.70
2017-10-15T04:23:25.323Z,1.77
2017-10-15T04:26:50.464Z,2.30
2017-10-15T04:30:15.645Z,2.47
2017-10-15T04:33:52.132Z,2.50
2017-10-15T04:37:17.379Z,2.30
2017-10-15T04:40:43.489Z,1.97
2017-10-15T04:44:27.726Z,2.77
2017-10-15T04:47:53.699Z,2.30
2017-10-15T04:51:19.050Z,2.30
2017-10-15T04:54:49.022Z,2.57
2017-10-15T04:58:14.084Z,2.30
2017-10-15T05:01:39.299Z,2.80
2017-10-15T05:05:08.703Z,2.50
2017-10-15T05:08:33.994Z,2.67
2017-10-15T05:11:59.991Z,2.10
2017-10-15T05:15:49.628Z,2.60
2017-10-15T05:19:14.740Z,2.30
2017-10-15T05:22:40.028Z,2.30
2017-10-15T05:26:05.960Z,2.30
2017-10-15T05:29:32.602Z,2.53
2017-10-15T05:33:12.271Z,2.10
2017-10-15T05:36:38.547Z,2.17
2017-10-15T05:40:03.832Z,1.90
2017-10-15T05:43:46.887Z,1.77
2017-10-15T05:47:12.470Z,2.80
2017-10-15T05:50:39.536Z,2.20
2017-10-15T05:54:07.154Z,2.50
2017-10-15T05:57:32.712Z,2.03
2017-10-15T06:00:58.215Z,2.13
2017-10-15T06:04:43.719Z,1.77
2017-10-15T06:08:08.850Z,2.13
2017-10-15T06:11:41.325Z,2.63
2017-10-15T06:15:06.516Z,2.03
2017-10-15T06:18:32.519Z,2.10
2017-10-15T06:22:01.528Z,1.90
2017-10-15T06:25:27.436Z,1.80
2017-10-15T06:28:52.701Z,1.80
2017-10-15T06:32:18.260Z,1.70
2017-10-15T06:35:43.534Z,1.57
2017-10-15T06:39:09.157Z,2.00
2017-10-15T06:42:34.783Z,1.90
2017-10-15T06:45:59.926Z,1.83
2017-10-15T06:49:25.275Z,1.97
2017-10-15T06:52:52.042Z,1.40
2017-10-15T06:56:17.513Z,1.50
2017-10-15T06:59:42.774Z,2.00
2017-10-15T07:10:58.451Z,1.20
2017-10-15T07:14:23.601Z,1.63
2017-10-15T07:17:52.853Z,1.67
2017-10-15T07:21:18.850Z,1.60
2017-10-15T07:24:43.971Z,1.60
2017-10-15T07:28:18.924Z,1.40
2017-10-15T07:31:44.127Z,1.80
2017-10-15T07:35:09.371Z,2.87
2017-10-15T07:38:41.072Z,2.07
2017-10-15T07:42:06.377Z,4.27
2017-10-15T07:45:31.582Z,4.70
2017-10-15T07:49:07.320Z,6.60
2017-10-15T07:52:32.532Z,5.93
2017-10-15T07:55:57.683Z,7.03
2017-10-15T07:59:26.144Z,6.60
2017-10-15T08:02:53.763Z,5.40
2017-10-15T08:06:18.931Z,6.23
2017-10-15T08:09:56.859Z,6.13
2017-10-15T08:13:22.792Z,6.10
2017-10-15T08:16:48.445Z,7.47
2017-10-15T08:20:17.654Z,6.30
2017-10-15T08:23:43.239Z,6.87
2017-10-15T08:27:09.282Z,7.67
2017-10-15T08:30:34.454Z,6.53
2017-10-15T08:33:59.616Z,7.03
2017-10-15T08:37:25.346Z,6.40
2017-10-15T08:40:52.975Z,7.47
2017-10-15T08:44:18.171Z,8.13
2017-10-15T08:47:46.384Z,7.73
2017-10-15T08:51:14.765Z,8.20
2017-10-15T08:54:40.689Z,9.13
2017-10-15T08:58:06.761Z,9.30
2017-10-15T09:01:38.376Z,8.47
2017-10-15T09:05:04.589Z,8.63
2017-10-15T09:08:30.177Z,8.77
2017-10-15T09:11:58.063Z,8.60
2017-10-15T09:15:23.264Z,7.87
2017-10-15T09:18:48.464Z,9.30
2017-10-15T09:22:13.776Z,8.13
2017-10-15T09:25:39.386Z,8.73
2017-10-15T09:29:11.007Z,7.90
2017-10-15T09:32:38.313Z,7.50
2017-10-15T09:36:04.738Z,8.07
2017-10-15T09:39:35.484Z,9.90
2017-10-15T09:43:01.427Z,11.97
2017-10-15T09:46:26.808Z,10.33
2017-10-15T09:50:03.084Z,9.90
2017-10-15T09:53:29.815Z,9.10
2017-10-15T09:56:55.193Z,9.33
2017-10-15T10:00:21.878Z,10.33
2017-10-15T10:03:47.509Z,10.93
2017-10-15T10:07:12.704Z,9.80
2017-10-15T10:10:47.992Z,8.90
2017-10-15T10:14:13.164Z,8.93
2017-10-15T10:17:39.072Z,10.33
2017-10-15T10:21:05.875Z,9.00
2017-10-15T10:24:31.917Z,10.70
2017-10-15T10:27:57.164Z,9.20
2017-10-15T10:31:23.811Z,9.97
2017-10-15T10:34:50.232Z,10.47
2017-10-15T10:38:19.488Z,10.33
2017-10-15T10:41:45.006Z,11.40
2017-10-15T10:45:10.717Z,9.93
2017-10-15T10:48:44.098Z,9.47
2017-10-15T10:52:19.173Z,11.00
2017-10-15T10:55:47.413Z,10.37
2017-10-15T10:59:22.811Z,11.97
2017-10-15T11:02:48.104Z,13.07
2017-10-15T11:06:13.332Z,13.60
2017-10-15T11:09:39.717Z,12.50
2017-10-15T11:13:05.064Z,10.80
2017-10-15T11:16:41.061Z,11.23
2017-10-15T11:20:09.801Z,9.97
2017-10-15T11:23:35.779Z,10.47
2017-10-15T11:27:13.931Z,9.90
2017-10-15T11:30:40.118Z,8.77
2017-10-15T11:34:06.108Z,9.40
2017-10-15T11:37:32.587Z,8.30
2017-10-15T11:40:58.017Z,7.60
2017-10-15T11:44:26.883Z,8.63
2017-10-15T11:48:13.005Z,7.70
2017-10-15T11:52:06.794Z,8.13
2017-10-15T11:55:32.091Z,7.30
2017-10-15T11:58:57.337Z,8.03
2017-10-15T12:02:23.289Z,6.97
2017-10-15T12:05:52.106Z,7.47
2017-10-15T12:09:19.802Z,7.00
2017-10-15T12:12:47.384Z,7.27
2017-10-15T12:16:13.137Z,6.80
2017-10-15T12:19:38.457Z,6.50
2017-10-15T12:23:25.129Z,6.40
2017-10-15T12:26:57.880Z,6.70
2017-10-15T12:30:23.119Z,5.90
2017-10-15T12:33:48.858Z,5.43
2017-10-15T12:37:16.921Z,6.27
2017-10-15T12:40:44.311Z,6.63
2017-10-15T12:44:15.057Z,6.23
2017-10-15T12:47:43.672Z,6.07
2017-10-15T12:51:09.038Z,6.03
2017-10-15T12:54:48.306Z,5.90
2017-10-15T12:58:14.720Z,6.30
2017-10-15T13:01:41.268Z,5.77
2017-10-15T13:05:07.817Z,5.30
2017-10-15T13:08:34.173Z,5.73
2017-10-15T13:12:00.681Z,5.53
2017-10-15T13:15:27.482Z,6.43
2017-10-15T13:18:52.751Z,4.93
2017-10-15T13:22:19.703Z,5.80
2017-10-15T13:25:49.903Z,5.73
2017-10-15T13:29:15.085Z,5.80
2017-10-15T13:32:40.324Z,5.07
2017-10-15T13:36:13.415Z,5.40
2017-10-15T13:39:38.661Z,4.90
2017-10-15T13:43:03.926Z,5.20
2017-10-15T13:46:29.627Z,5.13
2017-10-15T13:49:54.840Z,4.90
2017-10-15T13:53:33.280Z,5.50
2017-10-15T13:57:00.730Z,5.33
2017-10-15T14:00:37.315Z,4.70
2017-10-15T14:04:35.743Z,4.30
2017-10-15T14:08:16.950Z,5.30
2017-10-15T14:11:45.903Z,4.83
2017-10-15T14:15:11.139Z,5.20
2017-10-15T14:18:50.604Z,4.53
2017-10-15T14:22:16.708Z,4.97
2017-10-15T14:25:48.348Z,5.30
2017-10-15T14:29:14.143Z,4.80
2017-10-15T14:32:40.259Z,4.70
2017-10-15T14:36:22.088Z,5.87
2017-10-15T14:39:47.565Z,5.03
2017-10-15T14:43:13.083Z,5.03
2017-10-15T14:46:40.423Z,4.60
2017-10-15T14:50:11.626Z,5.10
2017-10-15T14:53:50.192Z,5.00
2017-10-15T14:57:19.037Z,4.10
2017-10-15T15:01:27.060Z,4.43
2017-10-15T15:05:04.672Z,4.30
2017-10-15T15:12:23.788Z,5.20
2017-10-15T15:20:02.448Z,5.00
2017-10-15T15:23:44.007Z,5.20
2017-10-15T15:27:25.229Z,4.93
2017-10-15T15:31:08.635Z,4.50
2017-10-15T15:38:42.997Z,5.10
2017-10-15T15:42:10.422Z,5.60
2017-10-15T15:45:39.053Z,5.23
2017-10-15T15:49:18.948Z,5.00
2017-10-15T15:56:49.316Z,4.43
2017-10-15T16:00:32.733Z,5.40
2017-10-15T16:04:08.557Z,5.20
2017-10-15T16:08:23.045Z,5.30
2017-10-15T16:11:56.233Z,5.57
2017-10-15T16:15:24.488Z,5.37
2017-10-15T16:19:06.521Z,4.83
2017-10-15T16:22:46.833Z,4.70
2017-10-15T16:26:21.741Z,5.30
2017-10-15T16:29:47.797Z,5.43
2017-10-15T16:33:16.552Z,5.87
2017-10-15T16:36:47.468Z,6.20
2017-10-15T16:40:12.948Z,5.83
2017-10-15T16:43:38.857Z,5.83
2017-10-15T16:47:07.233Z,6.40
2017-10-15T16:50:33.117Z,6.87
2017-10-15T16:54:00.147Z,6.93
2017-10-15T16:57:29.158Z,5.70
2017-10-15T17:01:04.605Z,5.83
2017-10-15T17:04:33.825Z,7.40
2017-10-15T17:08:01.996Z,6.53
2017-10-15T17:11:29.204Z,6.30
2017-10-15T17:15:02.352Z,6.90
2017-10-15T17:18:33.531Z,6.53
2017-10-15T17:26:01.254Z,6.13
2017-10-15T17:29:40.854Z,6.20
2017-10-15T17:33:10.633Z,7.23
2017-10-15T17:36:39.420Z,6.00
2017-10-15T17:40:13.836Z,5.83
2017-10-15T17:43:51.619Z,7.37
2017-10-15T17:47:16.984Z,8.90
2017-10-15T17:50:47.527Z,13.50
2017-10-15T17:54:20.170Z,15.73
2017-10-15T17:57:47.928Z,16.33
2017-10-15T18:01:13.421Z,19.47
2017-10-15T18:04:39.012Z,21.80
2017-10-15T18:08:10.591Z,22.17
2017-10-15T18:11:38.010Z,20.60
2017-10-15T18:15:04.617Z,20.47
2017-10-15T18:18:51.779Z,18.83
2017-10-15T18:22:17.543Z,19.70
2017-10-15T18:25:43.586Z,19.07
2017-10-15T18:29:31.194Z,19.03
2017-10-15T18:32:58.182Z,17.03
2017-10-15T18:36:29.696Z,17.00
2017-10-15T18:39:55.863Z,16.57
2017-10-15T18:43:21.877Z,17.00
2017-10-15T18:47:12.131Z,14.93
2017-10-15T18:50:37.545Z,14.50
2017-10-15T19:52:46.086Z,9.13
2017-10-15T19:56:11.664Z,9.17
2017-10-15T19:59:38.305Z,8.70
2017-10-15T20:03:04.530Z,7.47
2017-10-15T20:06:30.241Z,8.17
2017-10-15T20:09:56.821Z,8.30
2017-10-15T20:13:22.744Z,8.63
2017-10-15T20:16:48.534Z,8.40
2017-10-15T20:20:15.163Z,8.07
2017-10-15T20:23:40.721Z,7.90
2017-10-15T20:27:06.242Z,8.40
2017-10-15T20:30:32.251Z,8.57
2017-10-15T20:33:58.708Z,8.00
2017-10-15T20:37:24.059Z,8.27
2017-10-15T20:40:50.865Z,8.23
2017-10-15T20:44:16.670Z,8.70
2017-10-15T20:47:42.311Z,8.50
2017-10-15T20:51:13.812Z,8.03
2017-10-15T20:54:39.898Z,8.00
2017-10-15T20:58:05.453Z,8.40
2017-10-15T21:01:31.912Z,7.17
2017-10-15T21:05:00.244Z,7.83
2017-10-15T21:08:25.893Z,7.70
2017-10-15T21:11:52.595Z,7.50
2017-10-15T21:15:20.153Z,8.17
2017-10-15T21:18:45.785Z,8.37
2017-10-15T21:22:11.833Z,8.63
2017-10-15T21:25:38.607Z,7.80
2017-10-15T21:29:03.974Z,8.03
2017-10-15T21:32:30.710Z,7.70
2017-10-15T21:35:57.735Z,7.93
2017-10-15T21:39:23.686Z,8.40
2017-10-15T21:42:49.130Z,7.50
2017-10-15T22:00:13.406Z,7.90
2017-10-15T22:03:38.681Z,8.80
2017-10-15T22:07:08.977Z,8.03
2017-10-15T22:10:34.744Z,7.33
2017-10-15T22:14:00.311Z,8.17
2017-10-15T22:17:28.169Z,8.00
2017-10-15T22:20:58.008Z,7.40
2017-10-15T22:24:23.486Z,7.37
2017-10-15T22:27:49.525Z,8.13
2017-10-15T22:31:14.926Z,7.73
2017-10-15T22:34:40.552Z,8.00
2017-10-15T22:38:06.436Z,7.47
2017-10-15T22:41:32.110Z,8.43
2017-10-15T22:44:58.425Z,7.77
2017-10-15T22:48:24.250Z,7.90
2017-10-15T22:51:49.866Z,7.07
2017-10-15T22:55:16.000Z,6.90
2017-10-15T22:58:41.718Z,8.80
2017-10-15T23:02:08.687Z,7.43
2017-10-15T23:05:34.050Z,7.97
2017-10-15T23:09:01.143Z,8.30
2017-10-15T23:12:26.537Z,8.50
2017-10-15T23:15:51.964Z,7.70
2017-10-15T23:19:17.706Z,8.37
2017-10-15T23:22:43.101Z,8.17
2017-10-15T23:26:08.401Z,8.20
2017-10-15T23:29:34.653Z,8.20
2017-10-15T23:33:00.761Z,7.20
2017-10-15T23:36:26.405Z,7.90
2017-10-15T23:39:52.544Z,7.83
2017-10-15T23:43:18.000Z,8.13
2017-10-15T23:46:43.787Z,8.43
2017-10-15T23:50:12.356Z,8.30
2017-10-15T23:53:41.277Z,7.27
2017-10-15T23:57:07.640Z,7.23
